Flight Track Log - Related Links

Times and Time Zones

All times are in EDT time to prevent confusion due to time zone crossing. See the N5167L flight status page for this flight to view local times or setup timezone preferences in your user account.

Time Position Orientation Groundspeed Altitude Reporting Facility
EDT Latitude Longitude Course Direction KTS MPH feet Rate Location/Type
Sun 10:10:54 AM 36.2425 -93.1283 39° Northeast 90 104 7,000  Level Memphis Center
Sun 10:11:54 AM 36.2328 -93.1025 115° Southeast 90 104 7,000  Level Memphis Center
Sun 10:12:00 AM 36.4061 -92.9940 39° Northeast  Level FlightAware Approximate
Sun 10:12:54 AM 36.2228 -93.0764 115° Southeast 90 104 7,000  Level Memphis Center
Sun 10:13:54 AM 36.2131 -93.0503 115° Southeast 90 104 7,000  Level Memphis Center
Sun 10:14:54 AM 36.3842 -93.0353 North 90 104 7,000  Level Memphis Center
Sun 10:15:54 AM 36.3886 -93.0303 42° Northeast 90 104 7,000  Level Memphis Center
Sun 10:16:54 AM 36.4100 -93.0053 43° Northeast 90 104 7,000  Level Memphis Center
Sun 10:17:54 AM 36.4314 -92.9800 44° Northeast 90 104 7,000 -757 Level Memphis Center
Sun 10:18:45 AM 36.4189 -92.9894 211° Southwest 115 132 5,600 -482 Descending Kansas City Center
Sun 10:19:46 AM 36.4428 -92.9675 36° Northeast 110 127 6,100 443 Climbing Kansas City Center
Sun 10:20:47 AM 36.4675 -92.9453 36° Northeast 110 127 6,500 393 Climbing Kansas City Center
Sun 10:21:48 AM 36.4919 -92.9206 39° Northeast 111 128 6,900 288 Climbing Kansas City Center
Sun 10:22:52 AM 36.5172 -92.8822 51° Northeast 116 133 7,100 95 Climbing Kansas City Center
Sun 10:23:54 AM 36.5444 -92.8469 46° Northeast 113 130 7,100 -49 Level Memphis Center
Sun 10:24:54 AM 36.5764 -92.8219 32° Northeast 119 137 7,000 -66 Descending Memphis Center
Sun 10:26:57 AM 36.6278 -92.7678 40° Northeast 124 143 6,900 -32 Descending Kansas City Center
Sun 10:28:00 AM 36.6475 -92.7317 56° Northeast 122 140 6,900 48 Level Kansas City Center
Sun 10:29:01 AM 36.6642 -92.6936 61° Northeast 122 140 7,000 98 Climbing Kansas City Center
Sun 10:30:03 AM 36.6786 -92.6533 66° East 123 142 7,100 192 Climbing Kansas City Center
Sun 10:31:06 AM 36.6978 -92.6183 56° Northeast 123 142 7,400 339 Climbing Kansas City Center
Sun 10:32:07 AM 36.7225 -92.5967 35° Northeast 115 132 7,800 387 Climbing Kansas City Center
Sun 10:33:10 AM 36.7528 -92.5686 37° Northeast 112 129 8,200 339 Climbing Kansas City Center
Sun 10:34:11 AM 36.7786 -92.5431 38° Northeast 116 133 8,500 347 Climbing Kansas City Center
Sun 10:35:11 AM 36.8050 -92.5194 36° Northeast 116 133 8,900 242 Climbing Kansas City Center
Sun 10:36:15 AM 36.8336 -92.4986 30° Northeast 118 136 9,000 48 Climbing Kansas City Center
Sun 10:37:16 AM 36.8622 -92.4725 36° Northeast 124 143 9,000  Level Kansas City Center
Sun 10:38:16 AM 36.8911 -92.4431 39° Northeast 130 150 9,000 48 Level Kansas City Center
Sun 10:39:20 AM 36.9208 -92.4175 35° Northeast 130 150 9,100  Climbing Kansas City Center
Sun 10:40:21 AM 36.9514 -92.3900 36° Northeast 132 152 9,000 -48 Descending Kansas City Center
Sun 10:41:24 AM 36.9886 -92.3536 38° Northeast 136 157 9,000  Level Kansas City Center
Sun 10:42:25 AM 37.0161 -92.3228 42° Northeast 135 155 9,000  Level Kansas City Center
Sun 10:43:26 AM 37.0439 -92.2947 39° Northeast 132 152 9,000  Level Kansas City Center
Sun 10:44:29 AM 37.0753 -92.2714 31° Northeast 132 152 9,000  Level Kansas City Center
Sun 10:45:29 AM 37.1053 -92.2458 34° Northeast 131 151 9,000  Level Kansas City Center
Sun 10:46:31 AM 37.1353 -92.2186 36° Northeast 131 151 9,000 48 Level Kansas City Center
Sun 10:47:35 AM 37.1653 -92.1900 37° Northeast 133 153 9,100  Climbing Kansas City Center
Sun 10:48:37 AM 37.1986 -92.1539 41° Northeast 132 152 9,000 -49 Descending Kansas City Center
Sun 10:49:37 AM 37.2281 -92.1275 36° Northeast 132 152 9,000  Level Kansas City Center
Sun 10:50:40 AM 37.2575 -92.1000 37° Northeast 132 152 9,000  Level Kansas City Center
Sun 10:51:41 AM 37.2861 -92.0706 39° Northeast 132 152 9,000  Level Kansas City Center
Sun 10:52:44 AM 37.3144 -92.0419 39° Northeast 131 151 9,000  Level Kansas City Center
Sun 10:53:48 AM 37.3417 -92.0125 41° Northeast 129 148 9,000  Level Kansas City Center
Sun 10:54:48 AM 37.3764 -91.9806 36° Northeast 129 148 9,000  Level Kansas City Center
Sun 10:55:49 AM 37.4072 -91.9553 33° Northeast 131 151 9,000  Level Kansas City Center
Sun 10:56:53 AM 37.4375 -91.9306 33° Northeast 130 150 9,000  Level Kansas City Center
Sun 10:57:54 AM 37.4672 -91.9053 34° Northeast 130 150 9,000  Level Kansas City Center
Sun 10:58:57 AM 37.4956 -91.8789 36° Northeast 128 147 9,000  Level Kansas City Center
Sun 10:59:58 AM 37.5250 -91.8517 36° Northeast 130 150 9,000  Level Kansas City Center
Sun 11:01:02 AM 37.5525 -91.8233 39° Northeast 129 148 9,000  Level Kansas City Center
Sun 11:02:02 AM 37.5869 -91.7906 37° Northeast 129 148 9,000  Level Kansas City Center
Sun 11:03:06 AM 37.6103 -91.7572 49° Northeast 128 147 9,000  Level Kansas City Center
Sun 11:04:06 AM 37.6317 -91.7217 53° Northeast 128 147 9,000  Level Kansas City Center
Sun 11:05:09 AM 37.6542 -91.6881 50° Northeast 126 145 9,000  Level Kansas City Center
Sun 11:06:11 AM 37.6767 -91.6542 50° Northeast 126 145 9,000  Level Kansas City Center
Sun 11:07:12 AM 37.6967 -91.6178 55° Northeast 126 145 9,000  Level Kansas City Center
Sun 11:08:13 AM 37.7233 -91.5758 51° Northeast 127 146 9,000  Level Kansas City Center
Sun 11:09:18 AM 37.7458 -91.5428 49° Northeast 126 145 9,000  Level Kansas City Center
Sun 11:10:18 AM 37.7683 -91.5089 50° Northeast 125 144 9,000  Level Kansas City Center
Sun 11:11:20 AM 37.7889 -91.4739 53° Northeast 125 144 9,000  Level Kansas City Center
Sun 11:12:23 AM 37.8111 -91.4400 50° Northeast 124 143 9,000  Level Kansas City Center
Sun 11:13:24 AM 37.8325 -91.4053 52° Northeast 125 144 9,000  Level Kansas City Center
Sun 11:14:25 AM 37.8594 -91.3647 50° Northeast 126 145 9,000  Level Kansas City Center
Sun 11:15:29 AM 37.8803 -91.3300 53° Northeast 124 143 9,000  Level Kansas City Center
Sun 11:16:30 AM 37.9031 -91.2953 50° Northeast 126 145 9,000  Level Kansas City Center
Sun 11:17:33 AM 37.9236 -91.2600 54° Northeast 125 144 9,000  Level Kansas City Center
Sun 11:18:34 AM 37.9458 -91.2261 50° Northeast 125 144 9,000  Level Kansas City Center
Sun 11:19:38 AM 37.9650 -91.1914 55° Northeast 122 140 9,000  Level Kansas City Center
Sun 11:20:40 AM 37.9847 -91.1556 55° Northeast 122 140 9,000  Level Kansas City Center
Sun 11:21:40 AM 38.0111 -91.1169 49° Northeast 120 138 9,000  Level Kansas City Center
Sun 11:22:44 AM 38.0336 -91.0856 48° Northeast 120 138 9,000  Level Kansas City Center
Sun 11:23:45 AM 38.0519 -91.0544 53° Northeast 123 142 9,000  Level Kansas City Center
Sun 11:24:46 AM 38.0758 -91.0139 53° Northeast 121 139 9,000  Level Kansas City Center
Sun 11:25:50 AM 38.0972 -90.9806 51° Northeast 121 139 9,000  Level Kansas City Center
Sun 11:26:50 AM 38.1183 -90.9486 50° Northeast 120 138 9,000  Level Kansas City Center
Sun 11:27:54 AM 38.1386 -90.9158 52° Northeast 118 136 9,000  Level Kansas City Center
Sun 11:28:56 AM 38.1581 -90.8833 53° Northeast 117 135 9,000 -49 Level Kansas City Center
Sun 11:29:57 AM 38.1761 -90.8511 55° Northeast 113 130 8,900 -387 Descending Kansas City Center
Sun 11:31:00 AM 38.2031 -90.8083 51° Northeast 125 144 8,200 -732 Descending Kansas City Center
Sun 11:32:00 AM 38.2272 -90.7711 50° Northeast 133 153 7,400 -823 Descending Kansas City Center
Sun 11:33:04 AM 38.2506 -90.7336 52° Northeast 135 155 6,500 -768 Descending Kansas City Center
Sun 11:34:05 AM 38.2722 -90.6939 55° Northeast 136 157 5,800 -585 Descending Kansas City Center
Sun 11:35:07 AM 38.2939 -90.6592 52° Northeast 130 150 5,300 -624 Descending Kansas City Center
Sun 11:36:10 AM 38.3192 -90.6164 53° Northeast 127 146 4,500 -581 Descending Kansas City Center
Sun 11:37:11 AM 38.3408 -90.5811 52° Northeast 126 145 4,100 -246 Descending Kansas City Center
Sun 11:38:12 AM 38.3619 -90.5456 53° Northeast 126 145 4,000 -48 Descending Kansas City Center
Sun 11:39:17 AM 38.3825 -90.5128 51° Northeast 124 143 4,000  Level Kansas City Center
Sun 11:40:17 AM 38.4028 -90.4800 52° Northeast 120 138 4,000  Level Kansas City Center
Sun 11:41:18 AM 38.4217 -90.4464 54° Northeast 119 137 4,000 -144 Level Kansas City Center
Sun 11:42:22 AM 38.4447 -90.4044 55° Northeast 119 137 3,700 -240 Descending Kansas City Center
Sun 11:43:23 AM 38.4639 -90.3689 55° Northeast 121 139 3,500 -341 Descending Kansas City Center
Sun 11:44:25 AM 38.4806 -90.3339 59° Northeast 119 137 3,000 -432 Descending Kansas City Center
Sun 11:45:28 AM 38.5000 -90.2997 54° Northeast 119 137 2,600 -339 Descending Kansas City Center
Sun 11:46:29 AM 38.5242 -90.2725 41° Northeast 117 135 2,300 -390 Descending Kansas City Center
Sun 11:47:31 AM 38.5553 -90.2431 37° Northeast 116 133 1,800 -537 Descending Kansas City Center
Sun 11:48:32 AM 38.5789 -90.2167 41° Northeast 115 132 1,200 -480 Descending Kansas City Center
Sun 11:49:36 AM 38.5847 -90.1853 77° East 122 140 800 -333 Descending Kansas City Center
Sun 11:50:38 AM 38.5731 -90.1611 122° Southeast 96 110 500 -290 Descending Kansas City Center
Sun 11:52:00 AM 38.5667 -90.1500 57° Northeast  Level FlightAware Approximate
Sun 11:59:00 AM 38.5704 -90.1551 57° Northeast  Level Estimated
Sun 12:00:00 PM 38.5667 -90.1500 57° Northeast  Level FlightAware Approximate
Sun 12:01:00 PM 38.5704 -90.1551 57° Northeast  Level Estimated

Login

Don't have an account? Register now (free) for customized features, flight alerts, and more!